sensor_id;sensor_type;location;lat;lon;timestamp;P1;durP1;ratioP1;P2;durP2;ratioP2
22046;SDS011;11187;49.412;20.956;2024-02-21T00:02:01;29.33;;;27.13;;
22046;SDS011;11187;49.412;20.956;2024-02-21T00:04:43;30.10;;;27.83;;
22046;SDS011;11187;49.412;20.956;2024-02-21T00:07:22;29.88;;;27.45;;
22046;SDS011;11187;49.412;20.956;2024-02-21T00:10:03;30.77;;;28.20;;
22046;SDS011;11187;49.412;20.956;2024-02-21T00:12:42;29.10;;;26.75;;
22046;SDS011;11187;49.412;20.956;2024-02-21T00:15:29;30.75;;;28.35;;
22046;SDS011;11187;49.412;20.956;2024-02-21T00:18:23;32.58;;;29.50;;
22046;SDS011;11187;49.412;20.956;2024-02-21T00:20:57;38.47;;;34.47;;
22046;SDS011;11187;49.412;20.956;2024-02-21T00:23:50;33.88;;;30.90;;
22046;SDS011;11187;49.412;20.956;2024-02-21T00:26:24;31.55;;;28.95;;
22046;SDS011;11187;49.412;20.956;2024-02-21T00:29:10;36.63;;;33.22;;
22046;SDS011;11187;49.412;20.956;2024-02-21T00:31:44;34.63;;;31.27;;
22046;SDS011;11187;49.412;20.956;2024-02-21T00:34:30;32.85;;;30.02;;
22046;SDS011;11187;49.412;20.956;2024-02-21T00:37:04;32.53;;;29.67;;
22046;SDS011;11187;49.412;20.956;2024-02-21T00:39:50;31.70;;;29.10;;
22046;SDS011;11187;49.412;20.956;2024-02-21T00:42:24;31.35;;;28.75;;
22046;SDS011;11187;49.412;20.956;2024-02-21T00:45:10;30.55;;;28.23;;
22046;SDS011;11187;49.412;20.956;2024-02-21T00:47:44;30.75;;;28.45;;
22046;SDS011;11187;49.412;20.956;2024-02-21T00:50:37;32.08;;;29.58;;
22046;SDS011;11187;49.412;20.956;2024-02-21T00:53:31;31.35;;;28.80;;
22046;SDS011;11187;49.412;20.956;2024-02-21T00:56:05;30.05;;;27.85;;
22046;SDS011;11187;49.412;20.956;2024-02-21T00:58:52;30.25;;;27.95;;
22046;SDS011;11187;49.412;20.956;2024-02-21T01:01:26;30.58;;;28.38;;
22046;SDS011;11187;49.412;20.956;2024-02-21T01:04:19;29.17;;;27.00;;
22046;SDS011;11187;49.412;20.956;2024-02-21T01:06:53;29.20;;;27.30;;
22046;SDS011;11187;49.412;20.956;2024-02-21T01:09:39;28.80;;;26.70;;
22046;SDS011;11187;49.412;20.956;2024-02-21T01:12:19;25.35;;;23.75;;
22046;SDS011;11187;49.412;20.956;2024-02-21T01:15:06;25.83;;;24.13;;
22046;SDS011;11187;49.412;20.956;2024-02-21T01:17:40;22.98;;;21.58;;
22046;SDS011;11187;49.412;20.956;2024-02-21T01:20:26;23.15;;;21.75;;
22046;SDS011;11187;49.412;20.956;2024-02-21T01:23:00;20.60;;;19.40;;
22046;SDS011;11187;49.412;20.956;2024-02-21T01:25:46;20.65;;;19.45;;
22046;SDS011;11187;49.412;20.956;2024-02-21T01:28:20;23.45;;;21.92;;
22046;SDS011;11187;49.412;20.956;2024-02-21T01:31:06;21.52;;;20.23;;
22046;SDS011;11187;49.412;20.956;2024-02-21T01:33:40;20.63;;;19.40;;
22046;SDS011;11187;49.412;20.956;2024-02-21T01:36:26;21.88;;;20.50;;
22046;SDS011;11187;49.412;20.956;2024-02-21T01:39:00;22.65;;;21.15;;
22046;SDS011;11187;49.412;20.956;2024-02-21T01:41:39;20.92;;;19.63;;
22046;SDS011;11187;49.412;20.956;2024-02-21T01:44:19;22.80;;;21.40;;
22046;SDS011;11187;49.412;20.956;2024-02-21T01:47:13;20.23;;;19.00;;
22046;SDS011;11187;49.412;20.956;2024-02-21T01:50:07;19.48;;;18.17;;
22046;SDS011;11187;49.412;20.956;2024-02-21T01:52:45;20.20;;;18.95;;
22046;SDS011;11187;49.412;20.956;2024-02-21T01:55:34;21.42;;;20.10;;
22046;SDS011;11187;49.412;20.956;2024-02-21T01:58:10;21.05;;;19.75;;
22046;SDS011;11187;49.412;20.956;2024-02-21T02:00:56;20.23;;;18.90;;
22046;SDS011;11187;49.412;20.956;2024-02-21T02:03:31;19.20;;;18.00;;
22046;SDS011;11187;49.412;20.956;2024-02-21T02:06:18;20.63;;;19.35;;
22046;SDS011;11187;49.412;20.956;2024-02-21T02:08:52;20.95;;;19.55;;
22046;SDS011;11187;49.412;20.956;2024-02-21T02:11:39;20.40;;;19.13;;
22046;SDS011;11187;49.412;20.956;2024-02-21T02:14:13;20.00;;;18.70;;
22046;SDS011;11187;49.412;20.956;2024-02-21T02:16:59;22.98;;;21.27;;
22046;SDS011;11187;49.412;20.956;2024-02-21T02:19:33;21.23;;;19.92;;
22046;SDS011;11187;49.412;20.956;2024-02-21T02:22:29;23.98;;;22.38;;
22046;SDS011;11187;49.412;20.956;2024-02-21T02:25:05;20.27;;;19.08;;
22046;SDS011;11187;49.412;20.956;2024-02-21T02:27:59;24.08;;;22.52;;
22046;SDS011;11187;49.412;20.956;2024-02-21T02:30:53;20.77;;;19.23;;
22046;SDS011;11187;49.412;20.956;2024-02-21T02:33:27;21.17;;;19.45;;
22046;SDS011;11187;49.412;20.956;2024-02-21T02:36:13;20.02;;;18.63;;
22046;SDS011;11187;49.412;20.956;2024-02-21T02:38:47;19.90;;;18.50;;
22046;SDS011;11187;49.412;20.956;2024-02-21T02:41:36;17.73;;;16.35;;
22046;SDS011;11187;49.412;20.956;2024-02-21T02:44:16;18.85;;;17.23;;
22046;SDS011;11187;49.412;20.956;2024-02-21T02:47:10;19.70;;;17.92;;
22046;SDS011;11187;49.412;20.956;2024-02-21T02:49:44;20.65;;;19.08;;
22046;SDS011;11187;49.412;20.956;2024-02-21T02:52:37;21.10;;;19.65;;
22046;SDS011;11187;49.412;20.956;2024-02-21T02:55:11;19.08;;;17.58;;
22046;SDS011;11187;49.412;20.956;2024-02-21T02:57:58;19.67;;;18.17;;
22046;SDS011;11187;49.412;20.956;2024-02-21T03:00:32;18.05;;;16.92;;
22046;SDS011;11187;49.412;20.956;2024-02-21T03:03:28;20.02;;;18.65;;
22046;SDS011;11187;49.412;20.956;2024-02-21T03:06:02;21.27;;;19.80;;
22046;SDS011;11187;49.412;20.956;2024-02-21T03:08:48;20.55;;;19.10;;
22046;SDS011;11187;49.412;20.956;2024-02-21T03:11:22;21.85;;;20.33;;
22046;SDS011;11187;49.412;20.956;2024-02-21T03:14:10;19.05;;;17.80;;
22046;SDS011;11187;49.412;20.956;2024-02-21T03:17:03;19.02;;;17.75;;
22046;SDS011;11187;49.412;20.956;2024-02-21T03:19:57;18.88;;;17.52;;
22046;SDS011;11187;49.412;20.956;2024-02-21T03:22:33;17.65;;;16.45;;
22046;SDS011;11187;49.412;20.956;2024-02-21T03:25:26;17.58;;;16.15;;
22046;SDS011;11187;49.412;20.956;2024-02-21T03:28:20;19.10;;;17.75;;
22046;SDS011;11187;49.412;20.956;2024-02-21T03:30:54;20.38;;;18.50;;
22046;SDS011;11187;49.412;20.956;2024-02-21T03:33:47;18.00;;;16.90;;
22046;SDS011;11187;49.412;20.956;2024-02-21T03:36:21;20.20;;;18.83;;
22046;SDS011;11187;49.412;20.956;2024-02-21T03:39:07;20.92;;;19.48;;
22046;SDS011;11187;49.412;20.956;2024-02-21T03:41:42;19.45;;;17.92;;
22046;SDS011;11187;49.412;20.956;2024-02-21T03:44:36;18.23;;;17.05;;
22046;SDS011;11187;49.412;20.956;2024-02-21T03:47:09;18.33;;;16.83;;
22046;SDS011;11187;49.412;20.956;2024-02-21T03:49:55;21.38;;;19.73;;
22046;SDS011;11187;49.412;20.956;2024-02-21T03:52:29;21.05;;;19.65;;
22046;SDS011;11187;49.412;20.956;2024-02-21T03:55:16;21.23;;;19.85;;
22046;SDS011;11187;49.412;20.956;2024-02-21T03:57:50;19.75;;;18.35;;
22046;SDS011;11187;49.412;20.956;2024-02-21T04:00:36;19.17;;;17.88;;
22046;SDS011;11187;49.412;20.956;2024-02-21T04:03:10;19.80;;;18.50;;
22046;SDS011;11187;49.412;20.956;2024-02-21T04:05:56;18.90;;;17.70;;
22046;SDS011;11187;49.412;20.956;2024-02-21T04:08:30;19.17;;;17.77;;
22046;SDS011;11187;49.412;20.956;2024-02-21T04:11:16;18.52;;;17.20;;
22046;SDS011;11187;49.412;20.956;2024-02-21T04:13:51;19.02;;;17.45;;
22046;SDS011;11187;49.412;20.956;2024-02-21T04:16:37;18.00;;;16.83;;
22046;SDS011;11187;49.412;20.956;2024-02-21T04:19:12;17.80;;;16.52;;
22046;SDS011;11187;49.412;20.956;2024-02-21T04:21:58;19.33;;;18.13;;
22046;SDS011;11187;49.412;20.956;2024-02-21T04:24:32;19.45;;;18.15;;
22046;SDS011;11187;49.412;20.956;2024-02-21T04:27:18;19.83;;;18.60;;
22046;SDS011;11187;49.412;20.956;2024-02-21T04:29:52;20.60;;;19.40;;
22046;SDS011;11187;49.412;20.956;2024-02-21T04:32:39;20.55;;;19.17;;
22046;SDS011;11187;49.412;20.956;2024-02-21T04:35:17;21.20;;;19.58;;
22046;SDS011;11187;49.412;20.956;2024-02-21T04:38:03;19.02;;;17.50;;
22046;SDS011;11187;49.412;20.956;2024-02-21T04:40:37;20.52;;;19.05;;
22046;SDS011;11187;49.412;20.956;2024-02-21T04:43:30;20.67;;;19.35;;
22046;SDS011;11187;49.412;20.956;2024-02-21T04:46:04;20.63;;;19.02;;
22046;SDS011;11187;49.412;20.956;2024-02-21T04:48:57;20.90;;;19.40;;
22046;SDS011;11187;49.412;20.956;2024-02-21T04:51:51;21.05;;;19.48;;
22046;SDS011;11187;49.412;20.956;2024-02-21T04:54:45;21.20;;;19.38;;
22046;SDS011;11187;49.412;20.956;2024-02-21T04:57:19;21.25;;;19.75;;
22046;SDS011;11187;49.412;20.956;2024-02-21T05:00:06;19.17;;;17.65;;
22046;SDS011;11187;49.412;20.956;2024-02-21T05:02:47;20.38;;;18.98;;
22046;SDS011;11187;49.412;20.956;2024-02-21T05:05:33;20.25;;;18.85;;
22046;SDS011;11187;49.412;20.956;2024-02-21T05:08:07;19.63;;;18.13;;
22046;SDS011;11187;49.412;20.956;2024-02-21T05:10:55;21.48;;;19.80;;
22046;SDS011;11187;49.412;20.956;2024-02-21T05:13:36;20.00;;;18.60;;
22046;SDS011;11187;49.412;20.956;2024-02-21T05:16:30;19.10;;;17.77;;
22046;SDS011;11187;49.412;20.956;2024-02-21T05:19:24;20.45;;;18.95;;
22046;SDS011;11187;49.412;20.956;2024-02-21T05:22:01;21.42;;;19.83;;
22046;SDS011;11187;49.412;20.956;2024-02-21T05:24:47;21.65;;;20.05;;
22046;SDS011;11187;49.412;20.956;2024-02-21T05:27:21;21.25;;;19.55;;
22046;SDS011;11187;49.412;20.956;2024-02-21T05:30:08;19.48;;;18.08;;
22046;SDS011;11187;49.412;20.956;2024-02-21T05:32:41;21.20;;;19.80;;
22046;SDS011;11187;49.412;20.956;2024-02-21T05:35:28;18.88;;;17.55;;
22046;SDS011;11187;49.412;20.956;2024-02-21T05:38:02;20.50;;;19.10;;
22046;SDS011;11187;49.412;20.956;2024-02-21T05:40:51;21.42;;;20.02;;
22046;SDS011;11187;49.412;20.956;2024-02-21T05:43:25;22.48;;;20.90;;
22046;SDS011;11187;49.412;20.956;2024-02-21T05:46:11;18.95;;;17.60;;
22046;SDS011;11187;49.412;20.956;2024-02-21T05:48:46;19.92;;;18.58;;
22046;SDS011;11187;49.412;20.956;2024-02-21T05:51:39;22.40;;;20.60;;
22046;SDS011;11187;49.412;20.956;2024-02-21T05:54:13;21.70;;;20.00;;
22046;SDS011;11187;49.412;20.956;2024-02-21T05:56:59;19.80;;;18.52;;
22046;SDS011;11187;49.412;20.956;2024-02-21T05:59:33;20.30;;;19.00;;
22046;SDS011;11187;49.412;20.956;2024-02-21T06:02:23;20.35;;;18.95;;
22046;SDS011;11187;49.412;20.956;2024-02-21T06:04:57;18.65;;;17.35;;
22046;SDS011;11187;49.412;20.956;2024-02-21T06:07:47;20.15;;;18.85;;
22046;SDS011;11187;49.412;20.956;2024-02-21T06:10:21;18.17;;;17.02;;
22046;SDS011;11187;49.412;20.956;2024-02-21T06:13:07;19.48;;;18.15;;
22046;SDS011;11187;49.412;20.956;2024-02-21T06:15:42;19.75;;;18.35;;
22046;SDS011;11187;49.412;20.956;2024-02-21T06:18:29;20.08;;;18.67;;
22046;SDS011;11187;49.412;20.956;2024-02-21T06:21:03;20.02;;;18.52;;
22046;SDS011;11187;49.412;20.956;2024-02-21T06:23:58;20.73;;;19.42;;
22046;SDS011;11187;49.412;20.956;2024-02-21T06:26:32;20.70;;;19.27;;
22046;SDS011;11187;49.412;20.956;2024-02-21T06:29:26;22.70;;;20.90;;
22046;SDS011;11187;49.412;20.956;2024-02-21T06:32:00;21.73;;;20.23;;
22046;SDS011;11187;49.412;20.956;2024-02-21T06:34:47;18.80;;;17.50;;
22046;SDS011;11187;49.412;20.956;2024-02-21T06:37:21;21.20;;;19.58;;
22046;SDS011;11187;49.412;20.956;2024-02-21T06:40:14;23.77;;;21.58;;
22046;SDS011;11187;49.412;20.956;2024-02-21T06:42:48;24.90;;;20.20;;
22046;SDS011;11187;49.412;20.956;2024-02-21T06:45:35;21.10;;;19.27;;
22046;SDS011;11187;49.412;20.956;2024-02-21T06:48:09;19.35;;;17.73;;
22046;SDS011;11187;49.412;20.956;2024-02-21T06:50:55;20.60;;;18.52;;
22046;SDS011;11187;49.412;20.956;2024-02-21T06:53:29;20.05;;;18.45;;
22046;SDS011;11187;49.412;20.956;2024-02-21T06:56:15;19.77;;;18.27;;
22046;SDS011;11187;49.412;20.956;2024-02-21T06:58:49;21.42;;;19.73;;
22046;SDS011;11187;49.412;20.956;2024-02-21T07:01:47;20.65;;;19.00;;
22046;SDS011;11187;49.412;20.956;2024-02-21T07:04:21;21.33;;;19.23;;
22046;SDS011;11187;49.412;20.956;2024-02-21T07:07:09;20.48;;;18.88;;
22046;SDS011;11187;49.412;20.956;2024-02-21T07:09:42;20.33;;;18.52;;
22046;SDS011;11187;49.412;20.956;2024-02-21T07:12:28;19.92;;;18.42;;
22046;SDS011;11187;49.412;20.956;2024-02-21T07:15:02;20.15;;;18.45;;
22046;SDS011;11187;49.412;20.956;2024-02-21T07:17:49;20.42;;;18.52;;
22046;SDS011;11187;49.412;20.956;2024-02-21T07:20:23;20.23;;;18.23;;
22046;SDS011;11187;49.412;20.956;2024-02-21T07:23:09;22.02;;;20.05;;
22046;SDS011;11187;49.412;20.956;2024-02-21T07:25:43;22.98;;;20.58;;
22046;SDS011;11187;49.412;20.956;2024-02-21T07:28:36;20.33;;;18.20;;
22046;SDS011;11187;49.412;20.956;2024-02-21T07:31:10;24.00;;;18.80;;
22046;SDS011;11187;49.412;20.956;2024-02-21T07:33:56;19.52;;;17.70;;
22046;SDS011;11187;49.412;20.956;2024-02-21T07:36:33;18.80;;;16.92;;
22046;SDS011;11187;49.412;20.956;2024-02-21T07:39:19;21.70;;;19.70;;
22046;SDS011;11187;49.412;20.956;2024-02-21T07:41:53;22.40;;;20.13;;
22046;SDS011;11187;49.412;20.956;2024-02-21T07:44:39;22.58;;;20.35;;
22046;SDS011;11187;49.412;20.956;2024-02-21T07:47:13;23.70;;;21.38;;
22046;SDS011;11187;49.412;20.956;2024-02-21T07:50:07;22.05;;;20.08;;
22046;SDS011;11187;49.412;20.956;2024-02-21T07:53:00;22.55;;;20.42;;
22046;SDS011;11187;49.412;20.956;2024-02-21T07:55:34;20.30;;;18.55;;
22046;SDS011;11187;49.412;20.956;2024-02-21T07:58:20;22.23;;;19.85;;
22046;SDS011;11187;49.412;20.956;2024-02-21T08:00:54;21.88;;;19.45;;
22046;SDS011;11187;49.412;20.956;2024-02-21T08:03:40;21.25;;;19.48;;
22046;SDS011;11187;49.412;20.956;2024-02-21T08:06:21;21.25;;;19.20;;
22046;SDS011;11187;49.412;20.956;2024-02-21T08:09:00;21.40;;;19.60;;
22046;SDS011;11187;49.412;20.956;2024-02-21T08:11:41;21.02;;;19.13;;
22046;SDS011;11187;49.412;20.956;2024-02-21T08:14:21;21.38;;;19.58;;
22046;SDS011;11187;49.412;20.956;2024-02-21T08:17:02;23.15;;;20.88;;
22046;SDS011;11187;49.412;20.956;2024-02-21T08:19:41;22.17;;;20.17;;
22046;SDS011;11187;49.412;20.956;2024-02-21T08:22:22;24.30;;;21.92;;
22046;SDS011;11187;49.412;20.956;2024-02-21T08:25:02;30.88;;;27.67;;
22046;SDS011;11187;49.412;20.956;2024-02-21T08:27:57;27.60;;;24.25;;
22046;SDS011;11187;49.412;20.956;2024-02-21T08:30:32;23.13;;;20.85;;
22046;SDS011;11187;49.412;20.956;2024-02-21T08:33:25;27.60;;;23.00;;
22046;SDS011;11187;49.412;20.956;2024-02-21T08:35:59;25.95;;;23.35;;
22046;SDS011;11187;49.412;20.956;2024-02-21T08:38:48;29.38;;;26.15;;
22046;SDS011;11187;49.412;20.956;2024-02-21T08:41:21;23.10;;;20.50;;
22046;SDS011;11187;49.412;20.956;2024-02-21T08:44:29;21.23;;;19.08;;
22046;SDS011;11187;49.412;20.956;2024-02-21T08:47:02;18.63;;;16.92;;
22046;SDS011;11187;49.412;20.956;2024-02-21T08:49:50;18.77;;;16.42;;
22046;SDS011;11187;49.412;20.956;2024-02-21T08:52:23;19.90;;;18.02;;
22046;SDS011;11187;49.412;20.956;2024-02-21T08:55:10;19.15;;;17.48;;
22046;SDS011;11187;49.412;20.956;2024-02-21T08:57:44;17.70;;;16.20;;
22046;SDS011;11187;49.412;20.956;2024-02-21T09:00:30;18.50;;;17.10;;
22046;SDS011;11187;49.412;20.956;2024-02-21T09:03:07;18.70;;;17.00;;
22046;SDS011;11187;49.412;20.956;2024-02-21T09:05:54;16.73;;;15.23;;
22046;SDS011;11187;49.412;20.956;2024-02-21T09:08:30;20.65;;;16.92;;
22046;SDS011;11187;49.412;20.956;2024-02-21T09:11:17;19.80;;;17.70;;
22046;SDS011;11187;49.412;20.956;2024-02-21T09:13:51;17.05;;;15.40;;
22046;SDS011;11187;49.412;20.956;2024-02-21T09:16:45;14.80;;;13.38;;
22046;SDS011;11187;49.412;20.956;2024-02-21T09:19:39;16.13;;;14.20;;
22046;SDS011;11187;49.412;20.956;2024-02-21T09:22:12;15.80;;;14.35;;
22046;SDS011;11187;49.412;20.956;2024-02-21T09:24:59;15.93;;;14.43;;
22046;SDS011;11187;49.412;20.956;2024-02-21T09:27:32;15.60;;;14.10;;
22046;SDS011;11187;49.412;20.956;2024-02-21T09:30:19;13.80;;;12.57;;
22046;SDS011;11187;49.412;20.956;2024-02-21T09:32:55;24.15;;;16.27;;
22046;SDS011;11187;49.412;20.956;2024-02-21T09:35:43;16.17;;;14.10;;
22046;SDS011;11187;49.412;20.956;2024-02-21T09:38:16;15.38;;;14.07;;
22046;SDS011;11187;49.412;20.956;2024-02-21T09:43:39;13.82;;;12.52;;
22046;SDS011;11187;49.412;20.956;2024-02-21T09:46:45;13.95;;;12.95;;
22046;SDS011;11187;49.412;20.956;2024-02-21T09:49:37;13.30;;;12.32;;
22046;SDS011;11187;49.412;20.956;2024-02-21T09:52:27;19.25;;;13.57;;
22046;SDS011;11187;49.412;20.956;2024-02-21T09:55:21;14.23;;;13.02;;
22046;SDS011;11187;49.412;20.956;2024-02-21T09:57:55;13.32;;;12.40;;
22046;SDS011;11187;49.412;20.956;2024-02-21T10:00:44;15.43;;;14.02;;
22046;SDS011;11187;49.412;20.956;2024-02-21T10:03:17;13.85;;;12.75;;
22046;SDS011;11187;49.412;20.956;2024-02-21T10:06:11;14.82;;;13.52;;
22046;SDS011;11187;49.412;20.956;2024-02-21T10:09:08;12.57;;;11.43;;
22046;SDS011;11187;49.412;20.956;2024-02-21T10:11:41;14.48;;;12.75;;
22046;SDS011;11187;49.412;20.956;2024-02-21T10:14:28;15.30;;;14.00;;
22046;SDS011;11187;49.412;20.956;2024-02-21T10:17:22;15.20;;;14.00;;
22046;SDS011;11187;49.412;20.956;2024-02-21T10:20:16;15.20;;;13.18;;
22046;SDS011;11187;49.412;20.956;2024-02-21T10:22:59;17.73;;;14.70;;
22046;SDS011;11187;49.412;20.956;2024-02-21T10:26:04;13.90;;;12.57;;
22046;SDS011;11187;49.412;20.956;2024-02-21T10:28:59;18.80;;;15.70;;
22046;SDS011;11187;49.412;20.956;2024-02-21T10:32:07;14.35;;;12.98;;
22046;SDS011;11187;49.412;20.956;2024-02-21T10:35:02;13.05;;;12.05;;
22046;SDS011;11187;49.412;20.956;2024-02-21T10:37:39;13.10;;;11.98;;
22046;SDS011;11187;49.412;20.956;2024-02-21T10:40:33;13.35;;;12.43;;
22046;SDS011;11187;49.412;20.956;2024-02-21T10:43:09;12.73;;;11.63;;
22046;SDS011;11187;49.412;20.956;2024-02-21T10:46:09;13.00;;;12.10;;
22046;SDS011;11187;49.412;20.956;2024-02-21T10:48:44;12.02;;;11.23;;
22046;SDS011;11187;49.412;20.956;2024-02-21T10:51:33;12.75;;;11.75;;
22046;SDS011;11187;49.412;20.956;2024-02-21T10:54:30;13.90;;;12.52;;
22046;SDS011;11187;49.412;20.956;2024-02-21T10:57:26;14.52;;;13.40;;
22046;SDS011;11187;49.412;20.956;2024-02-21T11:00:00;18.67;;;17.27;;
22046;SDS011;11187;49.412;20.956;2024-02-21T11:02:50;13.77;;;12.68;;
22046;SDS011;11187;49.412;20.956;2024-02-21T11:05:24;14.00;;;13.00;;
22046;SDS011;11187;49.412;20.956;2024-02-21T11:08:15;14.55;;;13.13;;
22046;SDS011;11187;49.412;20.956;2024-02-21T11:10:48;15.55;;;14.45;;
22046;SDS011;11187;49.412;20.956;2024-02-21T11:13:42;13.13;;;12.32;;
22046;SDS011;11187;49.412;20.956;2024-02-21T11:16:36;13.02;;;12.02;;
22046;SDS011;11187;49.412;20.956;2024-02-21T11:19:31;13.23;;;12.30;;
22046;SDS011;11187;49.412;20.956;2024-02-21T11:22:04;13.57;;;12.68;;
22046;SDS011;11187;49.412;20.956;2024-02-21T11:25:06;15.20;;;14.07;;
22046;SDS011;11187;49.412;20.956;2024-02-21T11:27:47;13.63;;;12.70;;
22046;SDS011;11187;49.412;20.956;2024-02-21T11:30:37;12.00;;;11.13;;
22046;SDS011;11187;49.412;20.956;2024-02-21T11:33:11;10.95;;;10.13;;
22046;SDS011;11187;49.412;20.956;2024-02-21T11:36:06;9.95;;;9.25;;
22046;SDS011;11187;49.412;20.956;2024-02-21T11:39:03;13.93;;;12.85;;
22046;SDS011;11187;49.412;20.956;2024-02-21T11:42:04;13.82;;;12.68;;
22046;SDS011;11187;49.412;20.956;2024-02-21T11:44:59;14.10;;;13.20;;
22046;SDS011;11187;49.412;20.956;2024-02-21T11:47:55;14.88;;;14.02;;
22046;SDS011;11187;49.412;20.956;2024-02-21T11:50:56;12.48;;;11.57;;
22046;SDS011;11187;49.412;20.956;2024-02-21T11:53:30;12.38;;;10.45;;
22046;SDS011;11187;49.412;20.956;2024-02-21T11:56:29;12.02;;;10.60;;
22046;SDS011;11187;49.412;20.956;2024-02-21T11:59:02;11.77;;;10.88;;
22046;SDS011;11187;49.412;20.956;2024-02-21T12:01:49;13.85;;;11.63;;
22046;SDS011;11187;49.412;20.956;2024-02-21T12:04:24;13.57;;;12.48;;
22046;SDS011;11187;49.412;20.956;2024-02-21T12:07:19;13.63;;;12.48;;
22046;SDS011;11187;49.412;20.956;2024-02-21T12:10:15;12.10;;;11.20;;
22046;SDS011;11187;49.412;20.956;2024-02-21T12:13:09;12.38;;;11.13;;
22046;SDS011;11187;49.412;20.956;2024-02-21T12:16:03;12.18;;;11.27;;
22046;SDS011;11187;49.412;20.956;2024-02-21T12:18:57;12.25;;;11.23;;
22046;SDS011;11187;49.412;20.956;2024-02-21T12:21:31;13.23;;;12.15;;
22046;SDS011;11187;49.412;20.956;2024-02-21T12:24:22;12.88;;;12.07;;
22046;SDS011;11187;49.412;20.956;2024-02-21T12:26:56;13.05;;;12.05;;
22046;SDS011;11187;49.412;20.956;2024-02-21T12:29:44;12.93;;;12.02;;
22046;SDS011;11187;49.412;20.956;2024-02-21T12:32:17;14.70;;;13.55;;
22046;SDS011;11187;49.412;20.956;2024-02-21T12:35:05;15.70;;;14.15;;
22046;SDS011;11187;49.412;20.956;2024-02-21T12:37:38;12.95;;;11.90;;
22046;SDS011;11187;49.412;20.956;2024-02-21T12:40:25;13.35;;;12.52;;
22046;SDS011;11187;49.412;20.956;2024-02-21T12:42:59;14.00;;;12.93;;
22046;SDS011;11187;49.412;20.956;2024-02-21T12:45:56;14.85;;;13.85;;
22046;SDS011;11187;49.412;20.956;2024-02-21T12:48:50;14.23;;;13.30;;
22046;SDS011;11187;49.412;20.956;2024-02-21T12:51:33;13.20;;;12.30;;
22046;SDS011;11187;49.412;20.956;2024-02-21T12:54:15;13.13;;;12.05;;
22046;SDS011;11187;49.412;20.956;2024-02-21T12:56:55;13.75;;;12.55;;
22046;SDS011;11187;49.412;20.956;2024-02-21T12:59:29;12.55;;;11.63;;
22046;SDS011;11187;49.412;20.956;2024-02-21T13:02:23;14.98;;;13.93;;
22046;SDS011;11187;49.412;20.956;2024-02-21T13:05:19;14.60;;;13.20;;
22046;SDS011;11187;49.412;20.956;2024-02-21T13:08:13;14.38;;;13.05;;
22046;SDS011;11187;49.412;20.956;2024-02-21T13:10:47;13.48;;;12.25;;
22046;SDS011;11187;49.412;20.956;2024-02-21T13:13:35;15.13;;;13.77;;
22046;SDS011;11187;49.412;20.956;2024-02-21T13:16:08;16.25;;;15.15;;
22046;SDS011;11187;49.412;20.956;2024-02-21T13:18:55;14.25;;;13.02;;
22046;SDS011;11187;49.412;20.956;2024-02-21T13:21:28;13.82;;;12.80;;
22046;SDS011;11187;49.412;20.956;2024-02-21T13:24:22;13.15;;;12.05;;
22046;SDS011;11187;49.412;20.956;2024-02-21T13:26:55;12.88;;;11.93;;
22046;SDS011;11187;49.412;20.956;2024-02-21T13:29:50;15.38;;;14.38;;
22046;SDS011;11187;49.412;20.956;2024-02-21T13:32:23;15.40;;;14.15;;
22046;SDS011;11187;49.412;20.956;2024-02-21T13:35:10;11.70;;;10.77;;
22046;SDS011;11187;49.412;20.956;2024-02-21T13:37:44;13.48;;;12.48;;
22046;SDS011;11187;49.412;20.956;2024-02-21T13:40:31;13.55;;;12.40;;
22046;SDS011;11187;49.412;20.956;2024-02-21T13:43:04;15.82;;;14.60;;
22046;SDS011;11187;49.412;20.956;2024-02-21T13:45:58;17.20;;;15.50;;
22046;SDS011;11187;49.412;20.956;2024-02-21T13:48:32;13.52;;;12.43;;
22046;SDS011;11187;49.412;20.956;2024-02-21T13:51:19;13.02;;;11.75;;
22046;SDS011;11187;49.412;20.956;2024-02-21T13:54:00;12.90;;;12.02;;
22046;SDS011;11187;49.412;20.956;2024-02-21T13:56:43;12.95;;;11.85;;
22046;SDS011;11187;49.412;20.956;2024-02-21T13:59:23;13.93;;;12.80;;
22046;SDS011;11187;49.412;20.956;2024-02-21T14:02:03;15.70;;;14.40;;
22046;SDS011;11187;49.412;20.956;2024-02-21T14:04:43;12.98;;;11.88;;
22046;SDS011;11187;49.412;20.956;2024-02-21T14:07:30;14.05;;;13.15;;
22046;SDS011;11187;49.412;20.956;2024-02-21T14:10:03;14.73;;;13.77;;
22046;SDS011;11187;49.412;20.956;2024-02-21T14:12:50;14.80;;;13.70;;
22046;SDS011;11187;49.412;20.956;2024-02-21T14:15:23;15.18;;;13.77;;
22046;SDS011;11187;49.412;20.956;2024-02-21T14:18:17;15.38;;;14.32;;
22046;SDS011;11187;49.412;20.956;2024-02-21T14:20:50;12.82;;;11.93;;
22046;SDS011;11187;49.412;20.956;2024-02-21T14:23:37;11.98;;;10.93;;
22046;SDS011;11187;49.412;20.956;2024-02-21T14:26:11;13.43;;;12.50;;
22046;SDS011;11187;49.412;20.956;2024-02-21T14:29:05;13.95;;;13.05;;
22046;SDS011;11187;49.412;20.956;2024-02-21T14:31:38;13.18;;;12.18;;
22046;SDS011;11187;49.412;20.956;2024-02-21T14:34:32;13.52;;;12.52;;
22046;SDS011;11187;49.412;20.956;2024-02-21T14:37:05;15.10;;;13.30;;
22046;SDS011;11187;49.412;20.956;2024-02-21T14:39:52;13.85;;;12.40;;
22046;SDS011;11187;49.412;20.956;2024-02-21T14:42:25;13.05;;;12.15;;
22046;SDS011;11187;49.412;20.956;2024-02-21T14:45:19;13.05;;;12.10;;
22046;SDS011;11187;49.412;20.956;2024-02-21T14:47:52;13.15;;;12.15;;
22046;SDS011;11187;49.412;20.956;2024-02-21T14:50:46;14.07;;;12.68;;
22046;SDS011;11187;49.412;20.956;2024-02-21T14:53:40;12.98;;;12.07;;
22046;SDS011;11187;49.412;20.956;2024-02-21T14:56:34;12.60;;;11.57;;
22046;SDS011;11187;49.412;20.956;2024-02-21T14:59:28;13.25;;;11.95;;
22046;SDS011;11187;49.412;20.956;2024-02-21T15:02:22;14.80;;;13.60;;
22046;SDS011;11187;49.412;20.956;2024-02-21T15:05:16;13.55;;;12.20;;
22046;SDS011;11187;49.412;20.956;2024-02-21T15:08:10;13.35;;;12.05;;
22046;SDS011;11187;49.412;20.956;2024-02-21T15:10:51;18.40;;;13.35;;
22046;SDS011;11187;49.412;20.956;2024-02-21T15:13:31;15.43;;;13.88;;
22046;SDS011;11187;49.412;20.956;2024-02-21T15:16:18;17.95;;;16.20;;
22046;SDS011;11187;49.412;20.956;2024-02-21T15:19:12;17.52;;;15.65;;
22046;SDS011;11187;49.412;20.956;2024-02-21T15:21:45;14.35;;;12.18;;
22046;SDS011;11187;49.412;20.956;2024-02-21T15:24:33;18.08;;;13.68;;
22046;SDS011;11187;49.412;20.956;2024-02-21T15:27:06;17.45;;;13.77;;
22046;SDS011;11187;49.412;20.956;2024-02-21T15:29:54;13.98;;;12.80;;
22046;SDS011;11187;49.412;20.956;2024-02-21T15:32:27;15.38;;;13.93;;
22046;SDS011;11187;49.412;20.956;2024-02-21T15:35:21;14.90;;;13.52;;
22046;SDS011;11187;49.412;20.956;2024-02-21T15:37:55;14.07;;;12.73;;
22046;SDS011;11187;49.412;20.956;2024-02-21T15:40:43;16.27;;;14.88;;
22046;SDS011;11187;49.412;20.956;2024-02-21T15:43:16;15.68;;;14.48;;
22046;SDS011;11187;49.412;20.956;2024-02-21T15:46:05;20.02;;;18.42;;